createdAt,value
2023-03-31T00:01:04.521Z,12.27
2023-03-31T00:03:34.279Z,12.42
2023-03-31T00:06:02.004Z,12.02
2023-03-31T00:08:35.663Z,12.34
2023-03-31T00:11:07.314Z,12.02
2023-03-31T00:13:35.619Z,11.70
2023-03-31T00:16:06.002Z,11.58
2023-03-31T00:18:34.459Z,11.70
2023-03-31T00:21:24.633Z,11.81
2023-03-31T00:23:57.818Z,12.07
2023-03-31T00:26:26.318Z,12.58
2023-03-31T00:28:54.493Z,12.61
2023-03-31T00:31:22.543Z,12.71
2023-03-31T00:33:50.754Z,12.61
2023-03-31T00:36:21.514Z,12.67
2023-03-31T00:38:49.392Z,12.63
2023-03-31T00:41:16.894Z,12.65
2023-03-31T00:44:02.362Z,12.46
2023-03-31T00:46:43.951Z,12.26
2023-03-31T00:49:16.550Z,12.48
2023-03-31T00:51:44.638Z,12.50
2023-03-31T00:54:12.738Z,11.59
2023-03-31T00:56:42.328Z,11.30
2023-03-31T00:59:12.012Z,11.29
2023-03-31T01:01:42.999Z,11.02
2023-03-31T01:04:12.395Z,11.02
2023-03-31T01:06:46.980Z,11.14
2023-03-31T01:09:17.033Z,11.49
2023-03-31T01:11:46.467Z,11.50
2023-03-31T01:14:14.381Z,11.73
2023-03-31T01:16:42.189Z,11.79
2023-03-31T01:19:17.384Z,11.95
2023-03-31T01:22:16.200Z,11.80
2023-03-31T01:25:08.577Z,11.77
2023-03-31T01:27:54.186Z,10.98
2023-03-31T01:30:31.275Z,10.48
2023-03-31T01:33:32.928Z,9.75
2023-03-31T01:36:19.292Z,9.40
2023-03-31T01:39:05.104Z,9.25
2023-03-31T01:42:05.022Z,9.04
2023-03-31T01:44:53.441Z,9.30
2023-03-31T01:47:31.754Z,9.54
2023-03-31T01:50:08.040Z,9.51
2023-03-31T01:52:45.939Z,9.55
2023-03-31T01:55:20.881Z,9.63
2023-03-31T01:57:52.830Z,9.80
2023-03-31T02:00:26.173Z,9.72
2023-03-31T02:03:01.604Z,10.12
2023-03-31T02:05:43.348Z,10.85
2023-03-31T02:08:14.437Z,10.70
2023-03-31T02:10:42.972Z,11.42
2023-03-31T02:13:11.773Z,11.90
2023-03-31T02:15:46.320Z,11.76
2023-03-31T02:18:17.328Z,10.60
2023-03-31T02:20:47.544Z,10.41
2023-03-31T02:23:17.335Z,10.89
2023-03-31T02:25:51.457Z,10.73
2023-03-31T02:28:21.684Z,10.43
2023-03-31T02:30:53.320Z,10.39
2023-03-31T02:33:21.331Z,9.91
2023-03-31T02:35:48.772Z,9.89
2023-03-31T02:38:16.435Z,9.40
2023-03-31T02:40:44.205Z,9.19
2023-03-31T02:43:11.951Z,9.16
2023-03-31T02:45:45.359Z,9.36
2023-03-31T02:48:26.538Z,9.75
2023-03-31T02:51:23.064Z,8.97
2023-03-31T02:54:20.006Z,8.55
2023-03-31T02:57:03.084Z,8.77
2023-03-31T02:59:45.938Z,8.98
2023-03-31T03:02:47.587Z,9.26
2023-03-31T03:05:41.409Z,9.54
2023-03-31T03:08:29.993Z,8.95
2023-03-31T03:11:11.308Z,8.51
2023-03-31T03:13:51.834Z,8.32
2023-03-31T03:16:42.526Z,8.24
2023-03-31T03:19:10.642Z,8.01
2023-03-31T03:21:38.375Z,7.83
2023-03-31T03:24:06.376Z,7.60
2023-03-31T03:26:35.278Z,7.68
2023-03-31T03:29:02.997Z,7.63
2023-03-31T03:31:30.815Z,7.73
2023-03-31T03:33:58.172Z,7.85
2023-03-31T03:36:26.030Z,8.07
2023-03-31T03:38:53.491Z,8.48
2023-03-31T03:41:20.918Z,8.94
2023-03-31T03:43:48.608Z,9.17
2023-03-31T03:46:16.244Z,9.11
2023-03-31T03:48:43.756Z,8.87
2023-03-31T03:51:11.405Z,8.59
2023-03-31T03:53:38.830Z,8.31
2023-03-31T03:56:06.880Z,8.14
2023-03-31T03:58:35.012Z,7.90
2023-03-31T04:01:02.450Z,7.80
2023-03-31T04:03:31.204Z,7.75
2023-03-31T04:05:58.735Z,8.22
2023-03-31T04:08:26.308Z,8.28
2023-03-31T04:10:53.974Z,8.27
2023-03-31T04:13:21.514Z,8.94
2023-03-31T04:15:49.212Z,9.27
2023-03-31T04:18:23.313Z,8.82
2023-03-31T04:21:04.212Z,8.53
2023-03-31T04:23:33.308Z,8.32
2023-03-31T04:26:01.345Z,7.88
2023-03-31T04:28:34.817Z,7.76
2023-03-31T04:31:04.099Z,7.82
2023-03-31T04:33:34.183Z,7.41
2023-03-31T04:36:06.867Z,7.43
2023-03-31T04:38:34.802Z,7.42
2023-03-31T04:41:02.270Z,7.60
2023-03-31T04:43:29.645Z,7.44
2023-03-31T04:45:57.546Z,7.68
2023-03-31T04:48:25.658Z,7.82
2023-03-31T04:50:53.034Z,8.33
2023-03-31T04:53:20.742Z,8.80
2023-03-31T04:55:49.298Z,8.82
2023-03-31T04:58:16.917Z,8.26
2023-03-31T05:00:44.718Z,8.11
2023-03-31T05:03:12.167Z,7.66
2023-03-31T05:05:39.899Z,7.34
2023-03-31T05:08:07.652Z,7.07
2023-03-31T05:10:35.437Z,7.11
2023-03-31T05:13:03.372Z,7.13
2023-03-31T05:15:32.429Z,7.43
2023-03-31T05:18:00.952Z,7.68
2023-03-31T05:20:28.367Z,7.90
2023-03-31T05:22:56.090Z,8.19
2023-03-31T05:25:23.641Z,8.56
2023-03-31T05:27:51.151Z,8.80
2023-03-31T05:30:18.900Z,9.16
2023-03-31T05:32:46.522Z,9.34
2023-03-31T05:35:14.007Z,9.30
2023-03-31T05:37:41.686Z,9.52
2023-03-31T05:40:09.829Z,9.37
2023-03-31T05:42:37.956Z,9.29
2023-03-31T05:45:09.009Z,8.82
2023-03-31T05:47:37.055Z,9.13
2023-03-31T05:50:07.869Z,9.23
2023-03-31T05:52:36.168Z,9.39
2023-03-31T05:55:04.562Z,9.45
2023-03-31T05:57:32.580Z,9.45
2023-03-31T06:00:01.211Z,9.43
2023-03-31T06:02:28.885Z,9.73
2023-03-31T06:04:56.639Z,10.20
2023-03-31T06:07:25.038Z,10.29
2023-03-31T06:09:52.703Z,10.40
2023-03-31T06:12:21.864Z,10.60
2023-03-31T06:14:49.307Z,10.71
2023-03-31T06:17:16.763Z,11.39
2023-03-31T06:19:44.483Z,11.53
2023-03-31T06:22:12.172Z,12.13
2023-03-31T06:24:39.951Z,12.20
2023-03-31T06:27:07.772Z,11.92
2023-03-31T06:29:35.294Z,11.81
2023-03-31T06:32:05.098Z,11.72
2023-03-31T06:34:32.911Z,11.49
2023-03-31T06:37:01.381Z,11.65
2023-03-31T06:39:28.908Z,11.70
2023-03-31T06:41:57.120Z,12.08
2023-03-31T06:44:25.724Z,12.11
2023-03-31T06:46:53.205Z,11.86
2023-03-31T06:49:21.212Z,11.84
2023-03-31T06:51:48.652Z,11.50
2023-03-31T06:54:16.895Z,11.25
2023-03-31T06:56:45.133Z,11.41
2023-03-31T06:59:12.888Z,11.60
2023-03-31T07:01:42.662Z,11.97
2023-03-31T07:04:11.048Z,12.34
2023-03-31T07:06:38.745Z,12.24
2023-03-31T07:09:07.112Z,12.56
2023-03-31T07:11:34.942Z,12.85
2023-03-31T07:14:02.556Z,13.38
2023-03-31T07:16:31.544Z,13.41
2023-03-31T07:19:04.366Z,13.60
2023-03-31T07:21:31.866Z,14.50
2023-03-31T07:23:59.572Z,14.15
2023-03-31T07:26:27.784Z,13.96
2023-03-31T07:28:57.362Z,13.32
2023-03-31T07:31:25.035Z,13.32
2023-03-31T07:33:52.838Z,13.31
2023-03-31T07:36:20.899Z,13.49
2023-03-31T07:38:49.728Z,13.90
2023-03-31T07:41:19.582Z,14.02
2023-03-31T07:43:47.783Z,13.83
2023-03-31T07:46:18.141Z,14.15
2023-03-31T07:48:47.055Z,14.23
2023-03-31T07:51:16.924Z,14.24
2023-03-31T07:53:46.409Z,13.98
2023-03-31T07:56:14.199Z,13.94
2023-03-31T07:58:41.905Z,14.04
2023-03-31T08:01:09.780Z,14.09
2023-03-31T08:03:38.947Z,14.07
2023-03-31T08:06:06.593Z,14.50
2023-03-31T08:08:34.210Z,14.45
2023-03-31T08:11:01.984Z,14.65
2023-03-31T08:13:29.674Z,14.57
2023-03-31T08:15:57.345Z,14.38
2023-03-31T08:18:25.309Z,14.80
2023-03-31T08:20:53.030Z,15.12
2023-03-31T08:23:20.441Z,15.68
2023-03-31T08:25:48.867Z,16.21
2023-03-31T08:28:16.112Z,16.12
2023-03-31T08:30:43.310Z,16.67
2023-03-31T08:33:14.269Z,17.05
2023-03-31T08:35:41.787Z,16.77
2023-03-31T08:38:12.250Z,16.24
2023-03-31T08:40:43.713Z,16.33
2023-03-31T08:43:16.686Z,16.15
2023-03-31T08:45:45.456Z,16.19
2023-03-31T08:48:25.904Z,16.04
2023-03-31T08:50:58.017Z,16.35
2023-03-31T08:53:26.911Z,16.21
2023-03-31T08:55:54.915Z,16.69
2023-03-31T08:58:22.080Z,16.47
2023-03-31T09:01:02.072Z,16.46
2023-03-31T09:03:36.267Z,16.21
2023-03-31T09:06:29.654Z,16.28
2023-03-31T09:08:57.641Z,16.30
2023-03-31T09:11:57.252Z,16.59
2023-03-31T09:14:26.059Z,16.50
2023-03-31T09:16:53.344Z,16.64
2023-03-31T09:19:23.276Z,17.08
2023-03-31T09:21:51.854Z,16.79
2023-03-31T09:24:21.111Z,16.95
2023-03-31T09:26:59.402Z,16.99
2023-03-31T09:29:30.094Z,17.18
2023-03-31T09:32:02.227Z,17.51
2023-03-31T09:34:31.486Z,17.71
2023-03-31T09:36:58.756Z,17.19
2023-03-31T09:39:26.374Z,17.80
2023-03-31T09:41:55.571Z,17.99
2023-03-31T09:44:32.998Z,18.00
2023-03-31T09:47:00.473Z,18.47
2023-03-31T09:49:28.514Z,18.23
2023-03-31T09:52:01.084Z,18.24
2023-03-31T09:54:31.094Z,17.80
2023-03-31T09:56:58.277Z,17.59
2023-03-31T09:59:32.555Z,17.73
2023-03-31T10:02:02.594Z,17.83
2023-03-31T10:04:30.979Z,17.83
2023-03-31T10:06:59.366Z,17.92
2023-03-31T10:09:27.917Z,18.21
2023-03-31T10:12:27.812Z,17.88
2023-03-31T10:15:00.396Z,18.07
2023-03-31T10:17:28.061Z,17.63
2023-03-31T10:19:59.546Z,17.32
2023-03-31T10:22:28.005Z,17.05
2023-03-31T10:24:55.677Z,16.83
2023-03-31T10:27:22.860Z,16.62
2023-03-31T10:29:53.612Z,17.08
2023-03-31T10:32:34.309Z,17.27
2023-03-31T10:35:20.184Z,17.10
2023-03-31T10:37:48.244Z,16.83
2023-03-31T10:40:16.323Z,16.70
2023-03-31T10:42:47.005Z,16.65
2023-03-31T10:45:35.793Z,16.87
2023-03-31T10:48:04.434Z,16.85
2023-03-31T10:50:33.094Z,17.30
2023-03-31T10:53:14.028Z,17.96
2023-03-31T10:55:44.282Z,17.66
2023-03-31T10:58:18.847Z,17.77
2023-03-31T11:00:49.388Z,17.92
2023-03-31T11:03:25.525Z,18.52
2023-03-31T11:05:54.908Z,18.60
2023-03-31T11:09:00.716Z,18.43
2023-03-31T11:11:34.667Z,19.13
2023-03-31T11:14:04.373Z,18.84
2023-03-31T11:16:37.731Z,18.90
2023-03-31T11:19:21.213Z,18.39
2023-03-31T11:22:09.860Z,18.21
2023-03-31T11:24:46.561Z,18.16
2023-03-31T11:27:17.161Z,17.97
2023-03-31T11:30:02.140Z,17.82
2023-03-31T11:32:38.886Z,17.68
2023-03-31T11:35:09.346Z,18.08
2023-03-31T11:37:41.551Z,18.07
2023-03-31T11:40:27.891Z,17.65
2023-03-31T11:42:56.338Z,17.52
2023-03-31T11:45:26.585Z,17.49
2023-03-31T11:47:54.878Z,17.75
2023-03-31T11:50:27.114Z,18.00
2023-03-31T11:52:58.828Z,18.27
2023-03-31T11:55:27.460Z,18.13
2023-03-31T11:57:54.628Z,18.22
2023-03-31T12:00:32.757Z,18.05
2023-03-31T12:03:19.190Z,18.38
2023-03-31T12:05:47.815Z,19.24
2023-03-31T12:08:16.839Z,19.14
2023-03-31T12:10:45.473Z,19.21
2023-03-31T12:13:12.577Z,18.99
2023-03-31T12:15:40.837Z,18.96
2023-03-31T12:18:16.569Z,18.60
2023-03-31T12:21:02.937Z,18.87
2023-03-31T12:23:31.608Z,18.99
2023-03-31T12:26:03.960Z,19.47
2023-03-31T12:28:32.692Z,19.17
2023-03-31T12:31:00.409Z,19.20
2023-03-31T12:33:38.206Z,19.50
2023-03-31T12:36:20.949Z,19.05
2023-03-31T12:38:52.216Z,19.09
2023-03-31T12:41:28.868Z,19.42
2023-03-31T12:44:11.096Z,19.59
2023-03-31T12:46:57.340Z,19.32
2023-03-31T12:49:24.541Z,18.97
2023-03-31T12:51:54.797Z,19.14
2023-03-31T12:54:33.944Z,19.11
2023-03-31T12:57:04.474Z,19.71
2023-03-31T12:59:35.953Z,19.41
2023-03-31T13:02:09.617Z,19.56
2023-03-31T13:04:37.469Z,19.04
2023-03-31T13:07:11.721Z,18.90
2023-03-31T13:09:53.070Z,18.50
2023-03-31T13:12:25.519Z,18.54
2023-03-31T13:14:54.455Z,18.43
2023-03-31T13:17:25.543Z,18.84
2023-03-31T13:19:53.084Z,19.13
2023-03-31T13:22:29.568Z,19.30
2023-03-31T13:25:15.997Z,19.64
2023-03-31T13:27:49.814Z,19.22
2023-03-31T13:30:44.708Z,18.64
2023-03-31T13:33:13.181Z,18.47
2023-03-31T13:35:42.634Z,18.32
2023-03-31T13:38:14.418Z,18.13
2023-03-31T13:41:01.086Z,18.19
2023-03-31T13:43:34.189Z,17.92
2023-03-31T13:46:23.515Z,17.86
2023-03-31T13:49:03.053Z,17.86
2023-03-31T13:51:36.570Z,18.01
2023-03-31T13:54:16.963Z,17.90
2023-03-31T13:56:48.145Z,17.92
2023-03-31T13:59:33.785Z,17.97
2023-03-31T14:02:24.380Z,18.14
2023-03-31T14:05:12.130Z,17.93
2023-03-31T14:07:39.307Z,17.85
2023-03-31T14:10:07.327Z,17.52
2023-03-31T14:12:35.484Z,17.64
2023-03-31T14:15:03.688Z,17.77
2023-03-31T14:17:36.177Z,17.87
2023-03-31T14:20:22.462Z,18.25
2023-03-31T14:22:59.080Z,18.35
2023-03-31T14:25:45.078Z,18.08
2023-03-31T14:28:21.723Z,17.90
2023-03-31T14:30:59.034Z,17.99
2023-03-31T14:33:26.471Z,18.18
2023-03-31T14:35:56.249Z,18.17
2023-03-31T14:38:23.624Z,18.01
2023-03-31T14:40:53.903Z,18.19
2023-03-31T14:43:26.100Z,18.28
2023-03-31T14:46:04.909Z,18.00
2023-03-31T14:48:32.856Z,17.89
2023-03-31T14:51:01.458Z,17.93
2023-03-31T14:53:28.995Z,17.94
2023-03-31T14:56:00.319Z,17.98
2023-03-31T14:58:31.471Z,17.64
2023-03-31T15:00:58.697Z,17.43
2023-03-31T15:03:26.130Z,17.53
2023-03-31T15:05:56.323Z,17.48
2023-03-31T15:08:23.540Z,17.40
2023-03-31T15:11:05.609Z,17.33
2023-03-31T15:14:00.966Z,17.47
2023-03-31T15:16:31.419Z,17.90
2023-03-31T15:19:00.482Z,17.54
2023-03-31T15:21:28.582Z,17.34
2023-03-31T15:23:56.197Z,17.22
2023-03-31T15:26:38.460Z,16.97
2023-03-31T15:29:28.835Z,16.85
2023-03-31T15:31:57.005Z,16.80
2023-03-31T15:34:29.941Z,16.82
2023-03-31T15:36:57.462Z,16.81
2023-03-31T15:39:25.435Z,16.81
2023-03-31T15:41:52.946Z,16.51
2023-03-31T15:44:23.274Z,16.41
2023-03-31T15:46:56.661Z,16.37
2023-03-31T15:49:24.769Z,16.30
2023-03-31T15:51:53.116Z,16.28
2023-03-31T15:54:29.096Z,16.20
2023-03-31T15:56:56.874Z,16.15
2023-03-31T15:59:27.681Z,16.21
2023-03-31T16:02:00.071Z,16.25
2023-03-31T16:04:32.269Z,16.19
2023-03-31T16:07:03.162Z,16.02
2023-03-31T16:09:41.785Z,16.03
2023-03-31T16:12:16.261Z,16.05
2023-03-31T16:14:53.154Z,15.82
2023-03-31T16:17:46.535Z,15.68
2023-03-31T16:20:31.865Z,15.61
2023-03-31T16:22:59.684Z,15.28
2023-03-31T16:25:28.093Z,15.14
2023-03-31T16:27:56.400Z,15.24
2023-03-31T16:30:34.721Z,15.14
2023-03-31T16:33:02.609Z,15.23
2023-03-31T16:35:34.445Z,15.04
2023-03-31T16:38:02.209Z,15.06
2023-03-31T16:40:30.894Z,15.00
2023-03-31T16:43:07.523Z,15.04
2023-03-31T16:45:35.018Z,14.78
2023-03-31T16:50:51.401Z,14.80
2023-03-31T16:53:22.456Z,14.58
2023-03-31T16:55:51.652Z,14.53
2023-03-31T16:58:18.930Z,14.52
2023-03-31T17:00:46.586Z,14.55
2023-03-31T17:03:15.704Z,14.35
2023-03-31T17:05:43.811Z,14.35
2023-03-31T17:08:11.656Z,14.38
2023-03-31T17:10:40.216Z,14.24
2023-03-31T17:13:08.921Z,14.24
2023-03-31T17:15:36.682Z,14.17
2023-03-31T17:18:04.712Z,14.02
2023-03-31T17:20:32.992Z,14.26
2023-03-31T17:23:00.730Z,14.09
2023-03-31T17:25:28.618Z,14.04
2023-03-31T17:27:56.318Z,14.14
2023-03-31T17:30:23.953Z,14.02
2023-03-31T17:32:54.638Z,13.95
2023-03-31T17:35:22.986Z,14.02
2023-03-31T17:37:53.782Z,14.13
2023-03-31T17:40:22.556Z,13.87
2023-03-31T17:42:50.628Z,14.07
2023-03-31T17:45:20.796Z,13.96
2023-03-31T17:47:51.979Z,13.88
2023-03-31T17:50:20.469Z,13.90
2023-03-31T17:52:48.307Z,13.74
2023-03-31T17:55:16.059Z,13.66
2023-03-31T17:57:43.582Z,13.75
2023-03-31T18:00:11.842Z,13.70
2023-03-31T18:02:40.042Z,13.73
2023-03-31T18:05:08.864Z,13.72
2023-03-31T18:07:36.771Z,13.79
2023-03-31T18:10:08.300Z,13.73
2023-03-31T18:12:36.977Z,13.67
2023-03-31T18:15:07.385Z,13.62
2023-03-31T18:17:35.350Z,13.53
2023-03-31T18:20:03.056Z,13.65
2023-03-31T18:22:32.189Z,13.86
2023-03-31T18:25:00.452Z,14.17
2023-03-31T18:27:28.747Z,15.29
2023-03-31T18:29:57.120Z,15.47
2023-03-31T18:32:26.541Z,15.31
2023-03-31T18:34:54.202Z,15.45
2023-03-31T18:37:22.893Z,15.71
2023-03-31T18:39:51.116Z,15.30
2023-03-31T18:42:25.188Z,15.05
2023-03-31T18:44:53.934Z,13.90
2023-03-31T18:47:22.186Z,13.45
2023-03-31T18:49:54.216Z,13.32
2023-03-31T18:52:22.980Z,13.31
2023-03-31T18:54:52.124Z,13.27
2023-03-31T18:57:19.897Z,13.18
2023-03-31T18:59:48.708Z,13.16
2023-03-31T19:02:18.312Z,13.08
2023-03-31T19:04:47.520Z,12.69
2023-03-31T19:07:16.895Z,12.88
2023-03-31T19:09:48.209Z,12.77
2023-03-31T19:12:17.089Z,12.57
2023-03-31T19:14:45.260Z,12.65
2023-03-31T19:17:13.498Z,12.54
2023-03-31T19:19:42.689Z,12.43
2023-03-31T19:22:11.338Z,12.45
2023-03-31T19:24:42.196Z,12.90
2023-03-31T19:27:12.647Z,12.50
2023-03-31T19:29:41.074Z,12.30
2023-03-31T19:32:08.923Z,12.61
2023-03-31T19:34:38.966Z,12.39
2023-03-31T19:37:11.509Z,12.39
2023-03-31T19:39:42.993Z,12.09
2023-03-31T19:42:11.462Z,12.28
2023-03-31T19:44:40.077Z,12.40
2023-03-31T19:47:10.978Z,12.48
2023-03-31T19:49:40.292Z,12.64
2023-03-31T19:52:08.875Z,12.33
2023-03-31T19:54:37.410Z,11.90
2023-03-31T19:57:09.423Z,11.46
2023-03-31T19:59:37.728Z,11.49
2023-03-31T20:02:07.248Z,11.77
2023-03-31T20:04:36.208Z,11.19
2023-03-31T20:07:05.296Z,11.21
2023-03-31T20:09:34.132Z,10.97
2023-03-31T20:12:05.416Z,11.02
2023-03-31T20:14:34.746Z,11.04
2023-03-31T20:17:05.247Z,11.40
2023-03-31T20:19:33.430Z,11.17
2023-03-31T20:22:02.508Z,10.66
2023-03-31T20:24:32.168Z,10.40
2023-03-31T20:27:00.629Z,10.83
2023-03-31T20:29:29.216Z,11.19
2023-03-31T20:31:58.758Z,10.37
2023-03-31T20:34:28.565Z,11.25
2023-03-31T20:36:57.296Z,11.20
2023-03-31T20:39:25.337Z,11.23
2023-03-31T20:41:54.082Z,10.40
2023-03-31T20:44:22.308Z,10.82
2023-03-31T20:46:51.425Z,10.91
2023-03-31T20:49:18.812Z,10.84
2023-03-31T20:51:47.468Z,10.66
2023-03-31T20:54:15.186Z,10.46
2023-03-31T20:56:42.863Z,10.38
2023-03-31T20:59:11.408Z,10.22
2023-03-31T21:01:40.146Z,10.22
2023-03-31T21:04:08.851Z,9.99
2023-03-31T21:06:40.453Z,9.81
2023-03-31T21:09:09.070Z,10.40
2023-03-31T21:11:36.505Z,11.04
2023-03-31T21:14:03.779Z,11.32
2023-03-31T21:16:32.587Z,10.52
2023-03-31T21:18:59.928Z,10.49
2023-03-31T21:21:27.385Z,10.41
2023-03-31T21:23:54.895Z,10.75
2023-03-31T21:26:22.193Z,10.30
2023-03-31T21:28:50.830Z,10.87
2023-03-31T21:31:18.902Z,10.35
2023-03-31T21:33:46.948Z,10.75
2023-03-31T21:36:15.132Z,10.59
2023-03-31T21:38:43.081Z,10.49
2023-03-31T21:41:14.588Z,10.26
2023-03-31T21:43:41.873Z,10.27
2023-03-31T21:46:09.750Z,10.74
2023-03-31T21:48:37.141Z,11.50
2023-03-31T21:51:04.642Z,11.51
2023-03-31T21:53:32.117Z,11.94
2023-03-31T21:56:00.570Z,12.06
2023-03-31T21:58:28.755Z,12.11
2023-03-31T22:00:57.690Z,11.26
2023-03-31T22:03:28.618Z,10.76
2023-03-31T22:05:56.680Z,10.75
2023-03-31T22:08:24.159Z,11.68
2023-03-31T22:10:52.161Z,11.83
2023-03-31T22:13:19.980Z,12.05
2023-03-31T22:15:47.500Z,12.42
2023-03-31T22:18:16.780Z,12.90
2023-03-31T22:20:44.299Z,13.08
2023-03-31T22:23:11.489Z,13.11
2023-03-31T22:25:38.939Z,12.93
2023-03-31T22:28:07.364Z,12.72
2023-03-31T22:30:35.041Z,12.74
2023-03-31T22:33:02.512Z,12.84
2023-03-31T22:35:30.087Z,12.82
2023-03-31T22:37:57.287Z,12.95
2023-03-31T22:40:25.564Z,11.76
2023-03-31T22:42:54.807Z,12.28
2023-03-31T22:45:22.056Z,12.35
2023-03-31T22:47:49.966Z,12.79
2023-03-31T22:50:17.240Z,12.74
2023-03-31T22:52:45.481Z,12.51
2023-03-31T22:55:12.913Z,12.12
2023-03-31T22:57:40.298Z,12.28
2023-03-31T23:00:07.784Z,11.75
2023-03-31T23:02:35.328Z,11.59
2023-03-31T23:05:02.510Z,10.56
2023-03-31T23:07:30.408Z,10.76
2023-03-31T23:09:57.874Z,10.91
2023-03-31T23:12:25.855Z,10.60
2023-03-31T23:14:53.043Z,10.62
2023-03-31T23:17:20.788Z,10.83
2023-03-31T23:19:48.343Z,10.64
2023-03-31T23:22:15.740Z,10.61
2023-03-31T23:24:43.229Z,10.60
2023-03-31T23:27:10.720Z,10.53
2023-03-31T23:29:37.985Z,10.27
2023-03-31T23:32:05.524Z,10.03
2023-03-31T23:34:32.801Z,10.08
2023-03-31T23:36:59.981Z,9.88
2023-03-31T23:39:27.474Z,9.84
2023-03-31T23:41:54.618Z,9.71
2023-03-31T23:44:21.820Z,9.59
2023-03-31T23:46:49.259Z,9.56
2023-03-31T23:49:16.648Z,9.53
2023-03-31T23:51:43.778Z,9.68
2023-03-31T23:54:11.213Z,9.72
2023-03-31T23:56:38.784Z,9.47
2023-03-31T23:59:06.440Z,9.47
